Huvudsida
METAR-TAF:

METAR-TAF

Flygplatser :

Enfidha-Hammamets internationella flygplats

Hammamet, Tunisien

latitud: 36-04-34N, longitud: 10-26-19E, höjd: 6 m

Aktuellt väderrapport

Denna rapport gjordes för 35 minuter sedan, klockan 23:00 UTC
Vind 3 kt från väst/nordväst
Temperatur 16°C
Fuktighet 63%
Tryck 1008 hPa
Sikt 10 km eller mer
Få moln på en höjd av 2600 ft

METAR: DTNH 152300Z 30003KT 9999 FEW026 16/09 Q1008 NOSIG

Tid: 00:35 (23:35 UTC)

Väderprognos

Denna rapport gjordes för 6 timmar och 35 minuter sedan, klockan 17:00 UTC
Prognos gäller från 15 kl. 18 UTC till 16 kl. 18 UTC
Vind 10 kt från syd
Sikt 10 km eller mer
Få moln på en höjd av 2600 ft
Blir
från 15 kl. 19 UTC till 15 kl. 21 UTC
Vind 3 kt varierande vindriktning
Blir
från 16 kl. 10 UTC till 16 kl. 12 UTC
Vind 12 kt från syd

TAF: DTNH 151700Z 1518/1618 17010KT 9999 FEW026 BECMG 1519/1521 VRB03KT BECMG 1610/1612 19012KT

Aktuella väderrapporter och prognoser från 4000 flygplatser (METAR- och TAF-rapporter).

De tillgängliga stationerna syns som gula och röda prickar på kartan.

För musen över prickarna för att se namnen på stationerna.

Klicka sedan för att få väderrapporter och prognoser.

För att ändra kartan: Klicka på de gröna knapparna med ett svart kors på för att zooma in; den gröna knappen med ett streck på för att zooma ut; eller på de gröna pilarna för angränsande kartor.


METAR-TAF: